This is the latest recevied weather packets stored in our database for station/object AC5JC-1. If no packets are shown the sender has not sent any weather packets the latest 10 day(s).
| Time | Temp. | Humidity | Pressure | Rain* | Wind** | Luminosity | Snow |
|---|---|---|---|---|---|---|---|
| 1777913141 | 23.89° C | 67% | 1012.1 hPa | 0 mm | - | 718 W/m² | - |
| 1777912821 | 23.89° C | 69% | 1012.1 hPa | 0 mm | - | 649 W/m² | - |
| 1777910735 | 22.22° C | 69% | 1012.3 hPa | 0 mm | - | 610 W/m² | - |
| 1777908675 | 21.11° C | 71% | 1012.5 hPa | 0 mm | - | 550 W/m² | - |
| 1777907135 | 21.11° C | 71% | 1012.6 hPa | 0 mm | - | 496 W/m² | - |
| 1777906235 | 20° C | 73% | 1012.8 hPa | 0 mm | - | 427 W/m² | - |
| 1777902634 | 18.33° C | 78% | 1013.1 hPa | 0 mm | - | 207 W/m² | - |
| 1777901755 | 17.78° C | 80% | 1013.1 hPa | 0 mm | - | 148 W/m² | - |
| 1777901155 | 17.22° C | 81% | 1012.8 hPa | 0 mm | - | 127 W/m² | - |
| 1777899636 | 17.22° C | 81% | 1013.1 hPa | 0 mm | - | 96 W/m² | - |
| 1777899061 | 16.67° C | 82% | 1012.9 hPa | 0 mm | - | 56 W/m² | - |
| 1777898736 | 16.67° C | 82% | 1012.9 hPa | 0 mm | - | 43 W/m² | - |
| 1777897235 | 16.67° C | 81% | 1012.7 hPa | 0 mm | - | 25 W/m² | - |
| 1777896069 | 16.11° C | 81% | 1012.7 hPa | 0 mm | - | 12 W/m² | - |
| 1777895435 | 16.11° C | 81% | 1012.6 hPa | 0 mm | - | 6 W/m² | - |
| 1777893336 | 16.11° C | 81% | 1012.8 hPa | 0 mm | - | 0 W/m² | - |
| 1777889435 | 16.11° C | 79% | 1013.3 hPa | 0 mm | - | 0 W/m² | - |
| 1777887655 | 16.67° C | 76% | 1013.4 hPa | 0 mm | - | 0 W/m² | - |
| 1777887335 | 16.11° C | 76% | 1013.2 hPa | 0 mm | - | 0 W/m² | - |
| 1777886135 | 16.67° C | 75% | 1013.2 hPa | 0 mm | - | 0 W/m² | - |
| 1777884661 | 16.67° C | 75% | 1013.7 hPa | 0 mm | - | 0 W/m² | - |
| 1777882585 | 16.67° C | 74% | 1013.9 hPa | 0 mm | - | 0 W/m² | - |
| 1777881935 | 16.67° C | 73% | 1013.9 hPa | 0 mm | - | 0 W/m² | - |
| 1777875935 | 17.22° C | 72% | 1015.1 hPa | 0 mm | - | 0 W/m² | - |
| 1777872935 | 17.78° C | 69% | 1015.5 hPa | 0 mm | - | 0 W/m² | - |
* Rain latest hour (hover to see other rain measurements)
** Current wind speed in m/s (hover to see current wind gust speed)